createdAt,value
2018-06-10T00:01:49.854Z,20.27
2018-06-10T00:04:23.687Z,20.20
2018-06-10T00:06:54.399Z,20.17
2018-06-10T00:09:26.303Z,20.12
2018-06-10T00:11:57.829Z,20.07
2018-06-10T00:14:28.470Z,20.03
2018-06-10T00:17:09.831Z,19.99
2018-06-10T00:19:41.542Z,19.92
2018-06-10T00:22:12.007Z,19.87
2018-06-10T00:24:48.350Z,19.78
2018-06-10T00:27:26.171Z,19.68
2018-06-10T00:30:02.175Z,19.64
2018-06-10T00:32:37.310Z,19.57
2018-06-10T00:35:08.128Z,19.47
2018-06-10T00:37:51.072Z,19.38
2018-06-10T00:40:45.196Z,19.29
2018-06-10T00:43:23.886Z,19.17
2018-06-10T00:45:58.765Z,19.07
2018-06-10T00:48:30.722Z,18.96
2018-06-10T00:51:07.755Z,18.86
2018-06-10T00:53:39.356Z,18.68
2018-06-10T00:56:26.420Z,18.61
2018-06-10T00:58:57.123Z,18.54
2018-06-10T01:01:31.893Z,18.47
2018-06-10T01:04:56.511Z,18.49
2018-06-10T01:07:32.315Z,18.50
2018-06-10T01:10:05.544Z,18.50
2018-06-10T01:12:38.335Z,18.47
2018-06-10T01:15:28.430Z,18.52
2018-06-10T01:18:08.336Z,18.51
2018-06-10T01:20:57.353Z,18.40
2018-06-10T01:23:35.490Z,18.32
2018-06-10T01:26:10.144Z,18.29
2018-06-10T01:28:46.215Z,18.31
2018-06-10T01:34:56.818Z,18.31
2018-06-10T01:37:29.997Z,18.30
2018-06-10T01:40:08.783Z,18.29
2018-06-10T01:42:42.147Z,18.27
2018-06-10T01:45:18.579Z,18.21
2018-06-10T01:48:02.190Z,18.21
2018-06-10T01:51:04.257Z,18.13
2018-06-10T01:53:38.631Z,18.03
2018-06-10T01:56:17.457Z,17.93
2018-06-10T01:58:51.361Z,17.76
2018-06-10T02:01:33.825Z,17.69
2018-06-10T02:04:04.523Z,17.65
2018-06-10T02:06:45.808Z,17.64
2018-06-10T02:09:19.619Z,17.60
2018-06-10T02:11:56.217Z,17.56
2018-06-10T02:14:34.086Z,17.52
2018-06-10T02:17:08.761Z,17.53
2018-06-10T02:19:40.433Z,17.48
2018-06-10T02:22:11.052Z,17.43
2018-06-10T02:24:43.742Z,17.45
2018-06-10T02:27:23.956Z,17.51
2018-06-10T02:29:57.038Z,17.45
2018-06-10T02:32:28.047Z,17.43
2018-06-10T02:35:04.849Z,17.40
2018-06-10T02:37:37.286Z,17.38
2018-06-10T02:40:08.508Z,17.40
2018-06-10T02:42:48.223Z,17.38
2018-06-10T02:45:30.717Z,17.32
2018-06-10T02:48:02.408Z,17.25
2018-06-10T02:50:38.950Z,17.26
2018-06-10T02:53:11.706Z,17.23
2018-06-10T02:55:42.374Z,17.20
2018-06-10T02:58:17.718Z,17.17
2018-06-10T03:00:57.349Z,17.14
2018-06-10T03:03:45.542Z,17.13
2018-06-10T03:06:24.216Z,17.12
2018-06-10T03:09:03.227Z,17.15
2018-06-10T03:11:41.016Z,17.15
2018-06-10T03:14:25.590Z,17.17
2018-06-10T03:17:04.667Z,17.18
2018-06-10T03:19:36.745Z,17.20
2018-06-10T03:22:18.071Z,17.20
2018-06-10T03:24:53.207Z,17.24
2018-06-10T03:27:26.856Z,17.22
2018-06-10T03:29:59.558Z,17.07
2018-06-10T03:32:30.039Z,16.97
2018-06-10T03:35:06.919Z,16.97
2018-06-10T03:37:38.657Z,16.98
2018-06-10T03:40:14.934Z,17.01
2018-06-10T03:42:46.883Z,17.02
2018-06-10T03:45:19.166Z,17.01
2018-06-10T03:47:51.831Z,17.04
2018-06-10T03:50:27.918Z,17.07
2018-06-10T03:53:00.961Z,17.09
2018-06-10T03:55:44.255Z,17.08
2018-06-10T03:58:16.920Z,17.08
2018-06-10T04:00:49.942Z,17.10
2018-06-10T04:03:26.962Z,17.12
2018-06-10T04:05:58.722Z,17.11
2018-06-10T04:08:30.134Z,17.15
2018-06-10T04:26:48.779Z,17.55
2018-06-10T04:29:24.962Z,17.64
2018-06-10T04:32:03.439Z,17.73
2018-06-10T04:34:55.950Z,17.89
2018-06-10T04:37:29.721Z,18.11
2018-06-10T04:40:00.259Z,18.33
2018-06-10T04:42:36.766Z,18.63
2018-06-10T04:45:07.632Z,18.87
2018-06-10T04:47:47.963Z,18.94
2018-06-10T04:50:36.620Z,19.19
2018-06-10T04:53:17.923Z,19.61
2018-06-10T04:55:54.549Z,20.15
2018-06-10T04:58:34.247Z,20.40
2018-06-10T05:01:12.042Z,20.61
2018-06-10T05:03:50.454Z,20.78
2018-06-10T05:06:23.915Z,21.23
2018-06-10T05:08:57.981Z,21.40
2018-06-10T05:11:39.939Z,21.46
2018-06-10T05:17:26.158Z,22.05
2018-06-10T05:20:05.093Z,22.36
2018-06-10T05:22:35.971Z,22.59
2018-06-10T05:25:07.987Z,22.76
2018-06-10T05:27:42.120Z,22.97
2018-06-10T05:30:19.490Z,23.21
2018-06-10T05:32:58.364Z,23.61
2018-06-10T05:35:29.966Z,23.76
2018-06-10T05:41:04.587Z,24.63
2018-06-10T05:43:37.151Z,27.01
2018-06-10T05:46:07.913Z,28.44
2018-06-10T05:48:44.480Z,29.19
2018-06-10T05:51:17.107Z,29.63
2018-06-10T05:53:47.707Z,28.64
2018-06-10T05:56:18.687Z,30.35
2018-06-10T05:59:14.774Z,30.97
2018-06-10T06:01:51.449Z,32.06
2018-06-10T06:04:40.492Z,32.10
2018-06-10T06:07:25.794Z,33.00
2018-06-10T06:10:01.906Z,33.28
2018-06-10T06:12:32.484Z,33.35
2018-06-10T06:15:06.544Z,33.88
2018-06-10T06:17:37.399Z,35.00
2018-06-10T06:20:13.156Z,35.19
2018-06-10T06:22:49.226Z,33.87
2018-06-10T06:25:29.715Z,32.00
2018-06-10T06:28:02.190Z,29.09
2018-06-10T06:30:36.785Z,27.86
2018-06-10T06:33:21.061Z,26.45
2018-06-10T06:35:51.490Z,26.84
2018-06-10T06:38:25.392Z,26.66
2018-06-10T06:41:08.169Z,28.55
2018-06-10T06:43:45.888Z,29.62
2018-06-10T06:46:22.334Z,29.97
2018-06-10T06:49:03.932Z,31.67
2018-06-10T06:51:42.563Z,32.95
2018-06-10T06:54:46.693Z,33.20
2018-06-10T06:57:19.979Z,32.91
2018-06-10T06:59:55.087Z,32.87
2018-06-10T07:02:29.577Z,33.82
2018-06-10T07:05:16.043Z,33.31
2018-06-10T07:08:24.151Z,31.61
2018-06-10T07:11:34.925Z,31.43
2018-06-10T07:14:16.373Z,31.18
2018-06-10T07:17:28.974Z,31.47
2018-06-10T07:20:00.174Z,33.98
2018-06-10T07:22:39.605Z,34.71
2018-06-10T07:25:14.379Z,35.19
2018-06-10T07:28:01.279Z,32.97
2018-06-10T07:30:41.949Z,34.64
2018-06-10T07:33:28.568Z,34.60
2018-06-10T07:36:17.144Z,32.63
2018-06-10T07:39:04.060Z,33.10
2018-06-10T07:41:54.622Z,30.06
2018-06-10T07:44:29.865Z,30.06
2018-06-10T07:47:11.512Z,27.96
2018-06-10T07:49:51.808Z,30.83
2018-06-10T07:55:46.357Z,34.00
2018-06-10T07:59:03.624Z,32.37
2018-06-10T08:01:51.551Z,32.57
2018-06-10T08:04:28.282Z,31.20
2018-06-10T08:07:01.589Z,28.42
2018-06-10T08:09:34.510Z,29.63
2018-06-10T08:12:12.811Z,29.57
2018-06-10T08:14:46.462Z,30.55
2018-06-10T08:17:23.812Z,29.93
2018-06-10T08:20:04.024Z,30.80
2018-06-10T08:22:37.172Z,32.63
2018-06-10T08:25:40.704Z,33.99
2018-06-10T08:28:13.851Z,31.88
2018-06-10T08:31:13.726Z,31.98
2018-06-10T08:33:54.597Z,32.75
2018-06-10T08:36:26.182Z,32.46
2018-06-10T08:39:04.005Z,31.25
2018-06-10T08:41:45.664Z,30.94
2018-06-10T08:44:16.373Z,32.78
2018-06-10T08:46:57.427Z,31.79
2018-06-10T08:49:30.539Z,31.62
2018-06-10T08:52:01.829Z,31.56
2018-06-10T08:54:43.121Z,32.82
2018-06-10T08:57:18.181Z,34.41
2018-06-10T08:59:54.154Z,33.87
2018-06-10T09:02:33.429Z,33.59
2018-06-10T09:05:10.111Z,33.85
2018-06-10T09:07:47.497Z,34.63
2018-06-10T09:10:19.206Z,34.50
2018-06-10T09:13:13.841Z,34.97
2018-06-10T09:15:48.612Z,33.55
2018-06-10T09:18:37.806Z,35.39
2018-06-10T09:21:09.692Z,34.45
2018-06-10T09:23:41.148Z,34.65
2018-06-10T09:26:11.848Z,32.50
2018-06-10T09:28:42.624Z,31.84
2018-06-10T09:31:13.408Z,34.22
2018-06-10T09:33:45.674Z,31.80
2018-06-10T09:36:17.703Z,32.53
2018-06-10T09:38:53.897Z,31.41
2018-06-10T09:41:31.940Z,31.70
2018-06-10T09:44:02.611Z,33.57
2018-06-10T09:46:44.183Z,34.47
2018-06-10T09:49:19.292Z,33.88
2018-06-10T09:51:52.027Z,34.18
2018-06-10T09:54:27.348Z,32.42
2018-06-10T09:57:02.972Z,34.91
2018-06-10T09:59:35.897Z,35.11
2018-06-10T10:02:12.265Z,36.04
2018-06-10T10:04:46.659Z,33.79
2018-06-10T10:07:25.196Z,34.54
2018-06-10T10:10:13.929Z,35.22
2018-06-10T10:12:52.560Z,35.21
2018-06-10T10:15:30.171Z,34.54
2018-06-10T10:18:05.223Z,32.43
2018-06-10T10:20:42.459Z,30.61
2018-06-10T10:23:15.424Z,32.60
2018-06-10T10:25:48.050Z,33.74
2018-06-10T10:28:22.431Z,34.51
2018-06-10T10:30:53.077Z,33.87
2018-06-10T10:33:29.955Z,33.51
2018-06-10T10:36:05.883Z,33.28
2018-06-10T10:39:00.319Z,34.67
2018-06-10T10:41:36.727Z,34.60
2018-06-10T10:44:10.741Z,36.03
2018-06-10T10:46:44.894Z,37.06
2018-06-10T10:49:31.658Z,36.94
2018-06-10T10:52:02.155Z,36.65
2018-06-10T10:54:44.383Z,33.01
2018-06-10T10:57:26.291Z,33.52
2018-06-10T10:59:57.038Z,33.86
2018-06-10T11:02:28.711Z,33.21
2018-06-10T11:05:00.345Z,33.12
2018-06-10T11:07:34.605Z,34.10
2018-06-10T11:10:17.662Z,32.85
2018-06-10T11:13:05.718Z,34.56
2018-06-10T11:15:49.772Z,34.72
2018-06-10T11:18:20.344Z,32.80
2018-06-10T11:20:50.876Z,32.94
2018-06-10T11:23:24.086Z,33.94
2018-06-10T11:26:01.381Z,34.36
2018-06-10T11:28:39.215Z,33.41
2018-06-10T11:31:14.702Z,33.78
2018-06-10T11:33:44.965Z,33.48
2018-06-10T11:36:15.439Z,34.86
2018-06-10T11:38:45.514Z,34.84
2018-06-10T11:41:16.309Z,34.84
2018-06-10T11:43:47.988Z,36.84
2018-06-10T11:46:19.540Z,35.07
2018-06-10T11:48:50.031Z,34.34
2018-06-10T11:51:28.646Z,34.05
2018-06-10T11:54:00.393Z,37.12
2018-06-10T11:56:31.926Z,35.14
2018-06-10T11:59:03.736Z,35.11
2018-06-10T12:01:36.739Z,33.94
2018-06-10T12:04:17.259Z,36.25
2018-06-10T12:06:53.661Z,36.02
2018-06-10T12:09:32.555Z,39.11
2018-06-10T12:12:09.063Z,35.66
2018-06-10T12:14:40.546Z,35.54
2018-06-10T12:17:23.939Z,37.49
2018-06-10T12:20:05.284Z,34.85
2018-06-10T12:22:43.254Z,32.10
2018-06-10T12:25:16.206Z,30.60
2018-06-10T12:27:52.336Z,30.80
2018-06-10T12:30:25.017Z,31.22
2018-06-10T12:33:01.298Z,32.64
2018-06-10T12:35:38.460Z,33.26
2018-06-10T12:38:11.504Z,34.53
2018-06-10T12:40:48.917Z,34.41
2018-06-10T12:43:37.411Z,34.99
2018-06-10T12:46:11.055Z,36.86
2018-06-10T12:48:53.834Z,36.82
2018-06-10T12:51:25.480Z,36.09
2018-06-10T12:54:15.923Z,36.92
2018-06-10T12:56:46.518Z,37.60
2018-06-10T12:59:24.722Z,36.86
2018-06-10T13:01:59.493Z,36.16
2018-06-10T13:04:35.546Z,38.84
2018-06-10T13:07:07.927Z,40.72
2018-06-10T13:09:48.878Z,40.50
2018-06-10T13:12:29.106Z,37.76
2018-06-10T13:15:05.493Z,39.81
2018-06-10T13:17:38.363Z,37.81
2018-06-10T13:20:26.787Z,37.16
2018-06-10T13:23:03.515Z,36.85
2018-06-10T13:25:44.309Z,36.16
2018-06-10T13:28:17.712Z,35.68
2018-06-10T13:30:57.286Z,35.01
2018-06-10T13:33:30.543Z,35.39
2018-06-10T13:36:05.846Z,34.90
2018-06-10T13:38:41.886Z,33.34
2018-06-10T13:41:21.274Z,33.16
2018-06-10T13:43:52.166Z,33.38
2018-06-10T13:46:24.828Z,33.44
2018-06-10T13:49:02.579Z,33.75
2018-06-10T13:51:34.146Z,33.25
2018-06-10T13:54:05.067Z,33.25
2018-06-10T13:56:40.083Z,34.02
2018-06-10T13:59:14.956Z,35.85
2018-06-10T14:01:46.427Z,37.80
2018-06-10T14:04:20.774Z,36.66
2018-06-10T14:06:52.171Z,36.90
2018-06-10T14:09:22.650Z,38.07
2018-06-10T14:11:54.787Z,37.08
2018-06-10T14:14:28.589Z,37.49
2018-06-10T14:17:04.797Z,37.34
2018-06-10T14:19:36.940Z,37.20
2018-06-10T14:22:09.297Z,35.02
2018-06-10T14:24:50.216Z,34.59
2018-06-10T14:27:21.895Z,34.82
2018-06-10T14:30:13.807Z,35.19
2018-06-10T14:32:45.745Z,33.52
2018-06-10T14:35:20.426Z,33.99
2018-06-10T14:38:01.168Z,34.55
2018-06-10T14:40:34.656Z,35.43
2018-06-10T14:43:29.578Z,35.49
2018-06-10T14:46:10.318Z,36.02
2018-06-10T14:48:48.133Z,35.86
2018-06-10T14:51:22.456Z,33.85
2018-06-10T14:53:55.658Z,32.31
2018-06-10T14:56:26.973Z,31.82
2018-06-10T14:59:13.655Z,31.92
2018-06-10T15:01:45.958Z,31.51
2018-06-10T15:04:28.760Z,31.56
2018-06-10T15:07:11.568Z,31.70
2018-06-10T15:09:49.511Z,32.78
2018-06-10T15:12:29.636Z,32.88
2018-06-10T15:15:00.619Z,33.26
2018-06-10T15:17:42.795Z,32.95
2018-06-10T15:20:13.473Z,33.25
2018-06-10T15:22:46.603Z,-135.48
2018-06-10T15:25:18.421Z,-135.48
2018-06-10T15:27:49.231Z,-135.48
2018-06-10T15:30:26.827Z,-135.48
2018-06-10T15:33:04.788Z,-135.48
2018-06-10T15:35:46.387Z,-135.48
2018-06-10T15:38:17.922Z,-135.48
2018-06-10T15:40:52.742Z,-135.48
2018-06-10T15:43:33.652Z,-135.48
2018-06-10T15:46:06.226Z,-135.48
2018-06-10T15:48:37.574Z,-135.48
2018-06-10T15:51:09.336Z,-135.48
2018-06-10T15:53:44.971Z,-135.48
2018-06-10T15:56:20.267Z,-135.48
2018-06-10T15:59:04.598Z,-135.48
2018-06-10T16:01:39.369Z,-135.48
2018-06-10T16:04:10.222Z,-135.48
2018-06-10T16:06:47.068Z,-135.48
2018-06-10T16:09:25.026Z,-135.48
2018-06-10T16:12:06.270Z,-135.48
2018-06-10T16:15:04.952Z,-135.48
2018-06-10T16:17:39.598Z,-135.48
2018-06-10T16:20:22.155Z,-135.48
2018-06-10T16:23:01.759Z,-135.48
2018-06-10T16:25:34.351Z,-135.48
2018-06-10T16:28:08.639Z,-135.48
2018-06-10T16:30:57.005Z,-135.48
2018-06-10T16:33:26.957Z,-135.48
2018-06-10T16:36:10.442Z,-135.48
2018-06-10T16:38:43.164Z,-135.48
2018-06-10T16:41:13.625Z,-135.48
2018-06-10T16:43:44.102Z,-135.48
2018-06-10T16:46:21.203Z,-135.48
2018-06-10T16:48:52.363Z,-135.48
2018-06-10T16:51:25.043Z,-135.48
2018-06-10T16:54:03.396Z,-135.48
2018-06-10T16:56:45.465Z,-135.48
2018-06-10T16:59:27.101Z,-135.48
2018-06-10T17:02:01.113Z,-135.48
2018-06-10T17:04:40.948Z,-135.48
2018-06-10T17:07:18.558Z,-135.48
2018-06-10T17:09:50.459Z,-135.48
2018-06-10T17:12:34.945Z,-135.48
2018-06-10T17:15:08.968Z,-135.48
2018-06-10T17:17:52.474Z,-135.48
2018-06-10T17:20:24.861Z,-135.48
2018-06-10T17:22:55.435Z,-135.48
2018-06-10T17:25:32.324Z,-135.48
2018-06-10T17:28:14.176Z,-135.48
2018-06-10T17:30:46.739Z,-135.48
2018-06-10T17:33:22.978Z,-135.48
2018-06-10T17:35:58.100Z,-135.48
2018-06-10T17:38:30.144Z,-135.48
2018-06-10T17:41:00.708Z,-135.48
2018-06-10T17:43:33.271Z,-135.48
2018-06-10T17:46:14.851Z,-135.48
2018-06-10T17:48:53.618Z,-135.48
2018-06-10T17:51:33.757Z,-135.48
2018-06-10T17:54:11.815Z,-135.48
2018-06-10T17:56:43.372Z,-135.48
2018-06-10T17:59:14.558Z,-135.48
2018-06-10T18:01:48.530Z,-135.48
2018-06-10T18:04:27.021Z,-135.48
2018-06-10T18:07:05.766Z,-135.48
2018-06-10T18:09:40.141Z,-135.48
2018-06-10T18:12:27.907Z,-135.48
2018-06-10T18:15:03.041Z,-135.48
2018-06-10T18:17:37.478Z,-135.48
2018-06-10T18:20:08.035Z,-135.48
2018-06-10T18:22:39.300Z,-135.48
2018-06-10T18:25:09.703Z,-135.48
2018-06-10T18:27:41.727Z,-135.48
2018-06-10T18:30:13.736Z,-135.48
2018-06-10T18:32:46.533Z,-135.48
2018-06-10T18:35:16.935Z,-135.48
2018-06-10T18:37:48.562Z,-135.48
2018-06-10T18:40:19.208Z,-135.48
2018-06-10T18:42:49.923Z,-135.48
2018-06-10T18:45:28.365Z,-135.48
2018-06-10T18:48:02.087Z,-135.48
2018-06-10T18:50:33.128Z,-135.48
2018-06-10T18:53:05.169Z,-135.48
2018-06-10T18:55:45.516Z,-135.48
2018-06-10T18:58:30.794Z,-135.48
2018-06-10T19:01:13.355Z,-135.48
2018-06-10T19:03:53.030Z,-135.48
2018-06-10T19:06:26.108Z,-135.48
2018-06-10T19:08:59.141Z,-135.48
2018-06-10T19:11:35.093Z,-135.48
2018-06-10T19:14:23.735Z,-135.48
2018-06-10T19:16:56.757Z,-135.48
2018-06-10T19:19:29.851Z,-135.48
2018-06-10T19:22:10.856Z,-135.48
2018-06-10T19:24:42.814Z,-135.48
2018-06-10T19:27:14.462Z,-135.48
2018-06-10T19:29:56.955Z,-135.48
2018-06-10T19:32:28.946Z,-135.48
2018-06-10T19:34:59.209Z,-135.48
2018-06-10T19:37:52.738Z,-135.48
2018-06-10T19:40:29.228Z,-135.48
2018-06-10T19:43:02.498Z,-135.48
2018-06-10T19:45:40.535Z,-135.48
2018-06-10T19:48:12.757Z,-135.48
2018-06-10T19:50:47.299Z,-135.48
2018-06-10T19:53:25.288Z,-135.48
2018-06-10T19:56:03.890Z,-135.48
2018-06-10T19:58:39.563Z,-135.48
2018-06-10T20:01:12.519Z,-135.48
2018-06-10T20:03:52.689Z,-135.48
2018-06-10T20:06:39.927Z,-135.48
2018-06-10T20:09:20.082Z,-135.48
2018-06-10T20:11:53.477Z,-135.48
2018-06-10T20:14:26.060Z,-135.48
2018-06-10T20:17:06.483Z,-135.48
2018-06-10T20:19:47.196Z,-135.48
2018-06-10T20:22:30.898Z,-135.48
2018-06-10T20:25:13.387Z,-135.48
2018-06-10T20:27:48.234Z,-135.48
2018-06-10T20:30:21.818Z,-135.48
2018-06-10T20:33:05.641Z,-135.48
2018-06-10T20:35:43.924Z,-135.48
2018-06-10T20:38:21.711Z,-135.48
2018-06-10T20:40:57.616Z,-135.48
2018-06-10T20:43:28.552Z,-135.48
2018-06-10T20:46:00.216Z,-135.48
2018-06-10T20:48:41.202Z,-135.48
2018-06-10T20:51:22.441Z,-135.48
2018-06-10T20:53:55.169Z,-135.48
2018-06-10T20:56:32.365Z,-135.48
2018-06-10T20:59:04.653Z,-135.48
2018-06-10T21:01:39.134Z,-135.48
2018-06-10T21:04:40.912Z,-135.48
2018-06-10T21:07:21.425Z,-135.48
2018-06-10T21:10:06.606Z,-135.48
2018-06-10T21:12:46.629Z,-135.48
2018-06-10T21:15:44.879Z,-135.48
2018-06-10T21:18:20.736Z,-135.48
2018-06-10T21:20:53.627Z,-135.48
2018-06-10T21:23:34.458Z,-135.48
2018-06-10T21:26:09.628Z,-135.48
2018-06-10T21:28:48.176Z,-135.48
2018-06-10T21:31:22.543Z,-135.48
2018-06-10T21:33:57.066Z,-135.48
2018-06-10T21:36:28.900Z,-135.48
2018-06-10T21:39:13.115Z,-135.48
2018-06-10T21:41:45.715Z,-135.48
2018-06-10T21:44:30.653Z,-135.48
2018-06-10T21:47:01.314Z,-135.48
2018-06-10T21:49:47.806Z,-135.48
2018-06-10T21:52:38.595Z,-135.48
2018-06-10T21:55:12.952Z,-135.48
2018-06-10T21:57:52.298Z,-135.48
2018-06-10T22:00:27.252Z,-135.48
2018-06-10T22:03:06.846Z,-135.48
2018-06-10T22:05:44.739Z,-135.48
2018-06-10T22:08:21.359Z,-135.48
2018-06-10T22:11:02.352Z,-135.48
2018-06-10T22:13:33.762Z,-135.48
2018-06-10T22:16:06.275Z,-135.48
2018-06-10T22:20:30.423Z,-135.48
2018-06-10T22:23:04.698Z,-135.48
2018-06-10T22:25:36.276Z,-135.48
2018-06-10T22:28:13.026Z,-135.48
2018-06-10T22:31:01.134Z,-135.48
2018-06-10T22:33:38.126Z,-135.48
2018-06-10T22:36:10.286Z,-135.48
2018-06-10T22:38:44.385Z,-135.48
2018-06-10T22:41:19.131Z,-135.48
2018-06-10T22:43:51.744Z,-135.48
2018-06-10T22:50:06.817Z,-135.48
2018-06-10T22:53:00.374Z,-135.48
2018-06-10T22:55:53.865Z,-135.48
2018-06-10T22:59:04.658Z,-135.48
2018-06-10T23:01:40.010Z,-135.48
2018-06-10T23:04:13.030Z,-135.48
2018-06-10T23:06:50.057Z,-135.48
2018-06-10T23:09:26.627Z,-135.48
2018-06-10T23:12:00.942Z,-135.48
2018-06-10T23:14:37.043Z,-135.48
2018-06-10T23:20:11.000Z,-135.48
2018-06-10T23:22:51.288Z,-135.48
2018-06-10T23:25:30.022Z,-135.48
2018-06-10T23:28:01.366Z,-135.48
2018-06-10T23:30:38.400Z,-135.48
2018-06-10T23:33:09.947Z,-135.48
2018-06-10T23:35:40.714Z,-135.48
2018-06-10T23:38:25.704Z,-135.48
2018-06-10T23:41:00.735Z,-135.48
2018-06-10T23:43:37.430Z,-135.48
2018-06-10T23:46:14.973Z,-135.48
2018-06-10T23:48:55.700Z,-135.48
2018-06-10T23:51:34.353Z,-135.48
2018-06-10T23:54:14.372Z,-135.48
2018-06-10T23:56:46.668Z,-135.48
2018-06-10T23:59:26.178Z,-135.48
